createdAt,value
2024-02-13T00:00:13.291Z,97873.31
2024-02-13T00:02:40.990Z,97875.25
2024-02-13T00:05:08.948Z,97882.50
2024-02-13T00:07:37.516Z,97881.91
2024-02-13T00:10:04.781Z,97873.28
2024-02-13T00:12:31.381Z,97880.06
2024-02-13T00:14:58.123Z,97881.16
2024-02-13T00:17:24.899Z,97894.81
2024-02-13T00:19:54.822Z,97892.88
2024-02-13T00:22:21.471Z,97902.06
2024-02-13T00:24:50.118Z,97907.25
2024-02-13T00:27:16.748Z,97915.25
2024-02-13T00:29:45.948Z,97922.63
2024-02-13T00:32:13.512Z,97933.34
2024-02-13T00:34:41.304Z,97936.78
2024-02-13T00:37:09.928Z,97944.03
2024-02-13T00:39:36.553Z,97945.63
2024-02-13T00:42:04.121Z,97948.94
2024-02-13T00:44:31.083Z,97950.69
2024-02-13T00:46:58.587Z,97953.81
2024-02-13T00:49:25.373Z,97955.44
2024-02-13T00:51:52.111Z,97966.88
2024-02-13T00:54:18.903Z,97964.19
2024-02-13T00:56:45.542Z,97966.22
2024-02-13T00:59:14.271Z,97975.16
2024-02-13T01:01:41.312Z,97977.19
2024-02-13T01:04:08.079Z,97984.91
2024-02-13T01:06:35.103Z,97988.81
2024-02-13T01:09:04.817Z,97996.50
2024-02-13T01:11:31.642Z,97998.09
2024-02-13T01:13:58.342Z,97994.31
2024-02-13T01:16:25.088Z,97995.22
2024-02-13T01:18:53.277Z,98005.94
2024-02-13T01:21:20.151Z,98000.44
2024-02-13T01:23:47.089Z,98007.69
2024-02-13T01:26:13.926Z,98007.41
2024-02-13T01:28:41.605Z,98021.63
2024-02-13T01:31:08.345Z,98016.44
2024-02-13T01:33:35.219Z,98022.59
2024-02-13T01:36:05.351Z,98017.56
2024-02-13T01:38:32.808Z,98022.59
2024-02-13T01:40:59.675Z,98018.66
2024-02-13T01:43:26.764Z,98026.53
2024-02-13T01:45:54.105Z,98027.41
2024-02-13T01:48:22.653Z,98021.78
2024-02-13T01:50:51.089Z,98034.22
2024-02-13T01:53:19.821Z,98035.78
2024-02-13T01:55:47.333Z,98039.91
2024-02-13T01:58:14.162Z,98054.00
2024-02-13T02:00:40.978Z,98048.66
2024-02-13T02:03:08.969Z,98054.94
2024-02-13T02:05:35.935Z,98060.72
2024-02-13T02:08:02.892Z,98060.22
2024-02-13T02:10:29.455Z,98064.00
2024-02-13T02:12:56.383Z,98061.66
2024-02-13T02:15:23.166Z,98069.88
2024-02-13T02:17:52.921Z,98068.47
2024-02-13T02:20:21.229Z,98068.47
2024-02-13T02:22:48.870Z,98062.19
2024-02-13T02:25:18.595Z,98076.50
2024-02-13T02:27:45.687Z,98058.75
2024-02-13T02:30:12.675Z,98074.47
2024-02-13T02:32:39.330Z,98073.38
2024-02-13T02:35:07.077Z,98077.63
2024-02-13T02:37:36.200Z,98076.50
2024-02-13T02:40:03.473Z,98079.47
2024-02-13T02:42:33.482Z,98084.63
2024-02-13T02:45:00.507Z,98090.91
2024-02-13T02:47:27.455Z,98094.03
2024-02-13T02:49:56.336Z,98088.41
2024-02-13T02:52:23.479Z,98092.28
2024-02-13T02:54:50.202Z,98083.66
2024-02-13T02:57:16.942Z,98086.94
2024-02-13T02:59:47.440Z,98088.84
2024-02-13T03:02:16.134Z,98084.28
2024-02-13T03:04:42.799Z,98079.28
2024-02-13T03:07:09.466Z,98085.56
2024-02-13T03:09:36.160Z,98084.59
2024-02-13T03:12:02.717Z,98081.59
2024-02-13T03:14:30.254Z,98090.75
2024-02-13T03:16:56.829Z,98086.63
2024-02-13T03:19:23.720Z,98082.56
2024-02-13T03:21:50.358Z,98094.56
2024-02-13T03:24:16.951Z,98098.63
2024-02-13T03:26:43.663Z,98102.56
2024-02-13T03:29:10.261Z,98095.31
2024-02-13T03:31:36.876Z,98101.91
2024-02-13T03:34:03.519Z,98110.72
2024-02-13T03:36:30.555Z,98108.69
2024-02-13T03:38:59.850Z,98108.84
2024-02-13T03:41:26.454Z,98109.94
2024-02-13T03:43:53.388Z,98122.66
2024-02-13T03:46:20.239Z,98114.97
2024-02-13T03:48:46.969Z,98114.19
2024-02-13T03:51:14.465Z,98119.66
2024-02-13T03:53:41.028Z,98127.38
2024-02-13T03:56:07.847Z,98125.50
2024-02-13T03:58:35.171Z,98120.31
2024-02-13T04:01:01.783Z,98132.13
2024-02-13T04:03:28.583Z,98130.25
2024-02-13T04:05:57.521Z,98127.25
2024-02-13T04:08:24.557Z,98139.97
2024-02-13T04:10:51.182Z,98136.66
2024-02-13T04:13:17.901Z,98138.88
2024-02-13T04:15:44.770Z,98137.81
2024-02-13T04:18:11.606Z,98134.69
2024-02-13T04:20:41.191Z,98140.47
2024-02-13T04:23:08.245Z,98136.38
2024-02-13T04:25:36.805Z,98140.47
2024-02-13T04:28:04.508Z,98148.50
2024-02-13T04:30:32.406Z,98141.59
2024-02-13T04:32:59.192Z,98148.50
2024-02-13T04:35:26.010Z,98139.69
2024-02-13T04:37:52.818Z,98150.84
2024-02-13T04:40:20.367Z,98146.13
2024-02-13T04:42:49.811Z,98149.72
2024-02-13T04:45:16.405Z,98151.28
2024-02-13T04:47:43.406Z,98150.19
2024-02-13T04:50:14.617Z,98155.22
2024-02-13T04:52:42.573Z,98159.16
2024-02-13T04:55:09.364Z,98159.16
2024-02-13T04:57:36.238Z,98162.94
2024-02-13T05:00:07.269Z,98174.63
2024-02-13T05:02:40.796Z,98171.28
2024-02-13T05:05:39.897Z,98177.09
2024-02-13T05:08:08.225Z,98164.50
2024-02-13T05:10:35.155Z,98173.97
2024-02-13T05:13:03.026Z,98174.28
2024-02-13T05:15:31.238Z,98169.91
2024-02-13T05:17:58.368Z,98167.22
2024-02-13T05:20:25.173Z,98174.94
2024-02-13T05:22:51.975Z,98172.59
2024-02-13T05:25:18.947Z,98164.72
2024-02-13T05:27:45.963Z,98168.38
2024-02-13T05:30:13.340Z,98166.16
2024-02-13T05:32:40.683Z,98172.16
2024-02-13T05:35:09.203Z,98166.50
2024-02-13T05:37:37.604Z,98181.16
2024-02-13T05:40:06.292Z,98173.13
2024-02-13T05:42:33.106Z,98172.81
2024-02-13T05:44:59.776Z,98173.91
2024-02-13T05:47:33.071Z,98171.25
2024-02-13T05:50:00.426Z,98163.84
2024-02-13T05:52:30.556Z,98170.94
2024-02-13T05:54:57.397Z,98167.66
2024-02-13T05:57:24.285Z,98168.44
2024-02-13T05:59:50.897Z,98169.84
2024-02-13T06:02:18.268Z,98176.94
2024-02-13T06:04:45.457Z,98172.22
2024-02-13T06:07:12.080Z,98170.66
2024-02-13T06:09:39.392Z,98178.38
2024-02-13T06:12:08.114Z,98174.91
2024-02-13T06:14:35.145Z,98171.78
2024-02-13T06:17:01.845Z,98169.09
2024-02-13T06:19:28.433Z,98178.56
2024-02-13T06:21:55.063Z,98181.53
2024-02-13T06:24:21.636Z,98178.06
2024-02-13T06:26:51.336Z,98175.25
2024-02-13T06:29:18.966Z,98180.28
2024-02-13T06:31:45.855Z,98177.44
2024-02-13T06:34:13.007Z,98186.09
2024-02-13T06:36:39.598Z,98182.66
2024-02-13T06:39:06.550Z,98184.84
2024-02-13T06:41:33.276Z,98185.66
2024-02-13T06:43:59.939Z,98189.59
2024-02-13T06:46:26.760Z,98194.28
2024-02-13T06:48:55.177Z,98200.09
2024-02-13T06:51:21.872Z,98202.31
2024-02-13T06:53:48.739Z,98198.06
2024-02-13T06:56:15.779Z,98208.91
2024-02-13T06:58:43.031Z,98214.56
2024-02-13T07:01:10.475Z,98219.75
2024-02-13T07:03:37.263Z,98220.06
2024-02-13T07:06:05.836Z,98221.03
2024-02-13T07:08:32.665Z,98227.78
2024-02-13T07:10:59.471Z,98231.09
2024-02-13T07:13:26.171Z,98229.97
2024-02-13T07:15:53.271Z,98235.19
2024-02-13T07:18:20.259Z,98233.41
2024-02-13T07:20:47.079Z,98239.56
2024-02-13T07:23:13.701Z,98249.00
2024-02-13T07:25:40.678Z,98256.34
2024-02-13T07:28:07.479Z,98253.19
2024-02-13T07:30:34.090Z,98258.50
2024-02-13T07:33:01.055Z,98250.00
2024-02-13T07:35:28.859Z,98259.56
2024-02-13T07:37:55.656Z,98257.63
2024-02-13T07:40:22.349Z,98254.56
2024-02-13T07:42:55.266Z,98259.91
2024-02-13T07:45:22.485Z,98256.88
2024-02-13T07:47:49.302Z,98256.81
2024-02-13T07:50:16.346Z,98264.03
2024-02-13T07:52:43.440Z,98273.44
2024-02-13T07:55:11.901Z,98268.22
2024-02-13T07:57:39.701Z,98269.66
2024-02-13T08:00:08.033Z,98270.69
2024-02-13T08:02:34.843Z,98264.72
2024-02-13T08:05:01.555Z,98269.75
2024-02-13T08:07:29.424Z,98271.75
2024-02-13T08:09:56.628Z,98272.88
2024-02-13T08:12:23.229Z,98273.53
2024-02-13T08:14:50.036Z,98277.63
2024-02-13T08:17:17.107Z,98273.06
2024-02-13T08:19:43.824Z,98277.13
2024-02-13T08:22:10.453Z,98281.97
2024-02-13T08:24:37.527Z,98276.41
2024-02-13T08:27:06.763Z,98278.56
2024-02-13T08:29:33.675Z,98281.53
2024-02-13T08:32:06.173Z,98275.16
2024-02-13T08:34:32.946Z,98277.84
2024-02-13T08:37:00.039Z,98282.09
2024-02-13T08:39:27.082Z,98289.16
2024-02-13T08:41:54.026Z,98291.66
2024-02-13T08:44:20.794Z,98292.25
2024-02-13T08:46:47.703Z,98291.13
2024-02-13T08:49:15.120Z,98289.97
2024-02-13T08:51:42.307Z,98286.44
2024-02-13T08:54:12.882Z,98290.03
2024-02-13T08:56:40.829Z,98279.19
2024-02-13T08:59:09.307Z,98284.22
2024-02-13T09:01:36.040Z,98283.41
2024-02-13T09:04:03.183Z,98279.16
2024-02-13T09:06:29.879Z,98282.69
2024-02-13T09:08:56.740Z,98280.31
2024-02-13T09:11:25.631Z,98289.72
2024-02-13T09:13:52.740Z,98280.78
2024-02-13T09:16:20.878Z,98282.13
2024-02-13T09:18:48.612Z,98283.25
2024-02-13T09:21:16.718Z,98284.47
2024-02-13T09:23:44.878Z,98278.97
2024-02-13T09:26:11.913Z,98281.97
2024-02-13T09:28:38.640Z,98285.16
2024-02-13T09:31:05.634Z,98286.59
2024-02-13T09:33:32.435Z,98279.72
2024-02-13T09:36:02.658Z,98283.53
2024-02-13T09:38:29.341Z,98285.91
2024-02-13T09:40:55.911Z,98282.25
2024-02-13T09:43:23.891Z,98284.28
2024-02-13T09:45:51.293Z,98278.66
2024-02-13T09:48:23.152Z,98284.34
2024-02-13T09:50:54.454Z,98283.66
2024-02-13T09:53:28.770Z,98278.41
2024-02-13T09:55:59.022Z,98284.56
2024-02-13T09:58:27.233Z,98288.16
2024-02-13T10:00:58.512Z,98287.38
2024-02-13T10:03:28.325Z,98276.81
2024-02-13T10:05:55.557Z,98284.97
2024-02-13T10:08:28.733Z,98285.78
2024-02-13T10:11:03.394Z,98286.22
2024-02-13T10:13:46.365Z,98296.94
2024-02-13T10:16:25.284Z,98293.75
2024-02-13T10:18:53.765Z,98286.53
2024-02-13T10:21:22.856Z,98286.31
2024-02-13T10:23:49.752Z,98288.25
2024-02-13T10:26:17.074Z,98283.31
2024-02-13T10:28:55.910Z,98285.31
2024-02-13T10:31:24.812Z,98286.09
2024-02-13T10:33:51.658Z,98279.41
2024-02-13T10:36:18.631Z,98283.84
2024-02-13T10:38:49.230Z,98283.50
2024-02-13T10:41:24.798Z,98278.97
2024-02-13T10:43:54.835Z,98286.38
2024-02-13T10:46:25.208Z,98283.84
2024-02-13T10:49:12.754Z,98281.22
2024-02-13T10:51:41.848Z,98279.47
2024-02-13T10:54:11.110Z,98271.97
2024-02-13T10:56:41.702Z,98275.03
2024-02-13T10:59:09.672Z,98275.72
2024-02-13T11:01:37.085Z,98275.94
2024-02-13T11:04:04.435Z,98275.53
2024-02-13T11:06:32.227Z,98281.44
2024-02-13T11:08:58.966Z,98287.69
2024-02-13T11:11:27.310Z,98282.28
2024-02-13T11:13:54.269Z,98280.38
2024-02-13T11:16:21.790Z,98283.94
2024-02-13T11:18:53.806Z,98272.91
2024-02-13T11:21:23.584Z,98280.31
2024-02-13T11:24:00.636Z,98276.22
2024-02-13T11:26:34.555Z,98269.03
2024-02-13T11:29:16.100Z,98280.63
2024-02-13T11:31:54.802Z,98279.78
2024-02-13T11:34:21.953Z,98275.38
2024-02-13T11:36:51.494Z,98286.31
2024-02-13T11:39:18.590Z,98290.22
2024-02-13T11:41:45.168Z,98284.09
2024-02-13T11:44:13.665Z,98278.34
2024-02-13T11:46:41.321Z,98275.84
2024-02-13T11:49:11.912Z,98264.09
2024-02-13T11:51:39.936Z,98267.00
2024-02-13T11:54:07.928Z,98264.84
2024-02-13T11:56:37.138Z,98267.69
2024-02-13T11:59:07.333Z,98262.13
2024-02-13T12:01:39.173Z,98258.69
2024-02-13T12:04:09.240Z,98264.19
2024-02-13T12:06:36.349Z,98260.03
2024-02-13T12:09:04.163Z,98258.59
2024-02-13T12:11:31.683Z,98255.06
2024-02-13T12:13:59.238Z,98250.50
2024-02-13T12:16:26.050Z,98251.69
2024-02-13T12:18:53.804Z,98247.91
2024-02-13T12:21:20.576Z,98245.66
2024-02-13T12:23:48.414Z,98255.41
2024-02-13T12:26:18.032Z,98250.94
2024-02-13T12:28:55.223Z,98247.94
2024-02-13T12:31:23.795Z,98243.94
2024-02-13T12:34:01.905Z,98239.91
2024-02-13T12:36:28.829Z,98238.44
2024-02-13T12:39:03.075Z,98238.53
2024-02-13T12:41:30.815Z,98229.91
2024-02-13T12:43:58.575Z,98229.28
2024-02-13T12:46:29.263Z,98219.72
2024-02-13T12:48:57.809Z,98225.13
2024-02-13T12:51:24.855Z,98219.09
2024-02-13T12:53:52.713Z,98221.94
2024-02-13T12:56:19.544Z,98220.38
2024-02-13T12:58:49.056Z,98208.81
2024-02-13T13:01:18.393Z,98204.31
2024-02-13T13:03:46.040Z,98207.56
2024-02-13T13:06:13.392Z,98196.75
2024-02-13T13:08:42.044Z,98193.63
2024-02-13T13:11:09.908Z,98192.22
2024-02-13T13:13:39.728Z,98193.69
2024-02-13T13:16:08.638Z,98188.59
2024-02-13T13:18:39.850Z,98184.41
2024-02-13T13:21:09.069Z,98179.88
2024-02-13T13:23:36.339Z,98181.69
2024-02-13T13:26:03.099Z,98178.63
2024-02-13T13:28:33.386Z,98177.06
2024-02-13T13:31:02.239Z,98180.16
2024-02-13T13:33:32.434Z,98177.03
2024-02-13T13:36:00.911Z,98174.63
2024-02-13T13:38:30.312Z,98174.31
2024-02-13T13:41:02.707Z,98171.59
2024-02-13T13:43:30.455Z,98175.91
2024-02-13T13:45:58.998Z,98170.22
2024-02-13T13:48:27.090Z,98179.16
2024-02-13T13:50:54.884Z,98179.56
2024-02-13T13:53:22.669Z,98176.53
2024-02-13T13:55:49.326Z,98178.47
2024-02-13T13:58:16.461Z,98183.19
2024-02-13T14:00:46.894Z,98171.22
2024-02-13T14:03:15.711Z,98163.47
2024-02-13T14:05:42.800Z,98161.88
2024-02-13T14:08:10.770Z,98166.47
2024-02-13T14:10:38.569Z,98169.88
2024-02-13T14:13:05.474Z,98171.06
2024-02-13T14:15:35.817Z,98170.34
2024-02-13T14:18:05.644Z,98174.59
2024-02-13T14:20:36.564Z,98171.91
2024-02-13T14:23:03.449Z,98174.94
2024-02-13T14:25:30.060Z,98168.59
2024-02-13T14:27:58.362Z,98175.13
2024-02-13T14:30:25.533Z,98172.75
2024-02-13T14:32:53.615Z,98172.03
2024-02-13T14:35:20.402Z,98171.22
2024-02-13T14:37:47.335Z,98171.22
2024-02-13T14:40:15.215Z,98170.47
2024-02-13T14:42:44.646Z,98172.78
2024-02-13T14:45:12.666Z,98177.53
2024-02-13T14:47:40.485Z,98168.16
2024-02-13T14:50:11.977Z,98171.91
2024-02-13T14:52:42.645Z,98167.25
2024-02-13T14:55:18.536Z,98173.00
2024-02-13T14:58:00.159Z,98165.28
2024-02-13T15:00:34.852Z,98167.16
2024-02-13T15:03:01.662Z,98164.13
2024-02-13T15:05:28.626Z,98167.06
2024-02-13T15:07:55.850Z,98169.56
2024-02-13T15:10:22.481Z,98166.38
2024-02-13T15:12:49.743Z,98160.22
2024-02-13T15:15:18.989Z,98162.16
2024-02-13T15:17:47.462Z,98167.91
2024-02-13T15:20:17.607Z,98167.06
2024-02-13T15:22:45.525Z,98174.00
2024-02-13T15:25:12.283Z,98166.84
2024-02-13T15:27:41.960Z,98169.69
2024-02-13T15:30:13.915Z,98175.50
2024-02-13T15:32:45.164Z,98166.25
2024-02-13T15:35:12.082Z,98169.13
2024-02-13T15:37:58.042Z,98169.03
2024-02-13T15:40:43.425Z,98165.19
2024-02-13T15:43:29.096Z,98170.53
2024-02-13T15:46:14.401Z,98166.22
2024-02-13T15:48:43.718Z,98161.84
2024-02-13T15:51:10.754Z,98161.03
2024-02-13T15:53:38.698Z,98159.63
2024-02-13T15:56:07.192Z,98168.09
2024-02-13T15:58:33.815Z,98175.50
2024-02-13T16:01:01.140Z,98171.13
2024-02-13T16:03:28.346Z,98166.78
2024-02-13T16:05:58.654Z,98167.56
2024-02-13T16:08:26.811Z,98174.47
2024-02-13T16:10:53.759Z,98173.56
2024-02-13T16:13:21.911Z,98182.28
2024-02-13T16:15:50.574Z,98180.25
2024-02-13T16:18:17.605Z,98184.69
2024-02-13T16:20:44.663Z,98184.19
2024-02-13T16:23:11.329Z,98181.69
2024-02-13T16:25:38.163Z,98181.06
2024-02-13T16:28:06.846Z,98186.66
2024-02-13T16:30:34.814Z,98189.66
2024-02-13T16:33:02.755Z,98192.91
2024-02-13T16:35:29.786Z,98190.38
2024-02-13T16:37:57.388Z,98190.91
2024-02-13T16:40:25.624Z,98194.50
2024-02-13T16:42:56.291Z,98195.16
2024-02-13T16:45:27.751Z,98189.09
2024-02-13T16:47:55.078Z,98206.78
2024-02-13T16:50:21.730Z,98205.47
2024-02-13T16:52:50.218Z,98204.78
2024-02-13T16:55:18.453Z,98203.22
2024-02-13T16:57:46.540Z,98196.53
2024-02-13T17:00:14.260Z,98203.56
2024-02-13T17:02:41.438Z,98203.63
2024-02-13T17:05:12.886Z,98203.00
2024-02-13T17:07:40.844Z,98207.41
2024-02-13T17:10:13.345Z,98202.16
2024-02-13T17:12:41.027Z,98208.06
2024-02-13T17:15:13.588Z,98210.53
2024-02-13T17:17:41.107Z,98214.25
2024-02-13T17:20:09.583Z,98220.22
2024-02-13T17:22:36.156Z,98226.94
2024-02-13T17:25:03.133Z,98221.38
2024-02-13T17:27:30.302Z,98231.69
2024-02-13T17:29:57.719Z,98231.13
2024-02-13T17:32:24.591Z,98240.88
2024-02-13T17:34:51.227Z,98241.44
2024-02-13T17:37:18.003Z,98238.19
2024-02-13T17:39:44.930Z,98242.03
2024-02-13T17:42:11.552Z,98245.84
2024-02-13T17:44:38.229Z,98251.09
2024-02-13T17:47:05.233Z,98257.94
2024-02-13T17:49:31.892Z,98251.66
2024-02-13T17:51:58.710Z,98246.97
2024-02-13T17:54:29.394Z,98256.03
2024-02-13T17:56:56.454Z,98258.03
2024-02-13T17:59:25.191Z,98263.53
2024-02-13T18:01:53.616Z,98260.06
2024-02-13T18:04:21.433Z,98271.53
2024-02-13T18:06:48.889Z,98263.00
2024-02-13T18:09:15.736Z,98265.22
2024-02-13T18:11:42.761Z,98263.41
2024-02-13T18:14:11.798Z,98260.97
2024-02-13T18:16:38.341Z,98262.16
2024-02-13T18:19:07.013Z,98262.44
2024-02-13T18:21:34.391Z,98256.84
2024-02-13T18:24:02.633Z,98258.47
2024-02-13T18:26:30.035Z,98267.38
2024-02-13T18:28:56.940Z,98258.09
2024-02-13T18:31:25.236Z,98262.22
2024-02-13T18:33:52.165Z,98262.56
2024-02-13T18:36:19.740Z,98270.13
2024-02-13T18:38:48.987Z,98267.91
2024-02-13T18:41:15.999Z,98278.19
2024-02-13T18:43:42.683Z,98277.06
2024-02-13T18:46:11.300Z,98276.75
2024-02-13T18:48:39.175Z,98278.31
2024-02-13T18:51:06.558Z,98273.28
2024-02-13T18:53:33.312Z,98269.34
2024-02-13T18:56:00.270Z,98273.78
2024-02-13T18:58:29.345Z,98268.75
2024-02-13T19:00:56.006Z,98266.59
2024-02-13T19:03:22.877Z,98269.00
2024-02-13T19:05:51.510Z,98266.22
2024-02-13T19:08:21.229Z,98268.31
2024-02-13T19:10:49.800Z,98263.91
2024-02-13T19:13:16.797Z,98269.16
2024-02-13T19:15:43.546Z,98268.88
2024-02-13T19:18:10.958Z,98269.16
2024-02-13T19:20:38.161Z,98270.31
2024-02-13T19:23:06.622Z,98267.47
2024-02-13T19:25:34.299Z,98266.50
2024-02-13T19:28:01.045Z,98260.25
2024-02-13T19:30:29.533Z,98261.66
2024-02-13T19:32:56.680Z,98262.16
2024-02-13T19:35:23.856Z,98254.03
2024-02-13T19:37:52.156Z,98256.44
2024-02-13T19:40:19.795Z,98259.00
2024-02-13T19:42:47.155Z,98260.91
2024-02-13T19:45:14.319Z,98262.97
2024-02-13T19:47:41.665Z,98256.84
2024-02-13T19:50:09.064Z,98265.50
2024-02-13T19:52:37.682Z,98262.16
2024-02-13T19:55:06.382Z,98264.97
2024-02-13T19:57:34.047Z,98255.38
2024-02-13T20:00:03.808Z,98262.00
2024-02-13T20:02:32.295Z,98266.25
2024-02-13T20:04:59.223Z,98260.19
2024-02-13T20:07:26.103Z,98264.31
2024-02-13T20:09:54.919Z,98270.03
2024-02-13T20:12:23.437Z,98274.59
2024-02-13T20:14:50.368Z,98276.50
2024-02-13T20:17:17.052Z,98279.97
2024-02-13T20:19:43.781Z,98286.25
2024-02-13T20:22:10.469Z,98286.88
2024-02-13T20:24:38.826Z,98300.88
2024-02-13T20:27:05.729Z,98302.59
2024-02-13T20:29:32.456Z,98301.22
2024-02-13T20:32:00.247Z,98307.97
2024-02-13T20:34:30.072Z,98305.19
2024-02-13T20:37:00.089Z,98310.69
2024-02-13T20:39:27.203Z,98306.59
2024-02-13T20:41:58.372Z,98306.13
2024-02-13T20:44:25.130Z,98309.13
2024-02-13T20:46:51.711Z,98316.84
2024-02-13T20:49:18.920Z,98328.94
2024-02-13T20:51:46.481Z,98320.13
2024-02-13T20:54:16.915Z,98325.19
2024-02-13T20:56:46.482Z,98330.84
2024-02-13T20:59:13.751Z,98329.91
2024-02-13T21:01:40.403Z,98329.28
2024-02-13T21:04:13.038Z,98325.16
2024-02-13T21:06:43.263Z,98329.88
2024-02-13T21:09:13.103Z,98338.53
2024-02-13T21:11:41.064Z,98336.81
2024-02-13T21:14:08.005Z,98342.16
2024-02-13T21:16:34.839Z,98342.16
2024-02-13T21:19:02.888Z,98340.13
2024-02-13T21:21:48.551Z,98342.78
2024-02-13T21:24:15.325Z,98349.41
2024-02-13T21:26:42.224Z,98353.19
2024-02-13T21:29:09.402Z,98348.94
2024-02-13T21:31:36.899Z,98350.38
2024-02-13T21:34:07.311Z,98345.78
2024-02-13T21:36:36.130Z,98352.88
2024-02-13T21:39:09.228Z,98351.00
2024-02-13T21:41:37.091Z,98357.91
2024-02-13T21:44:04.403Z,98354.00
2024-02-13T21:46:31.635Z,98356.94
2024-02-13T21:48:58.671Z,98360.28
2024-02-13T21:51:25.497Z,98367.06
2024-02-13T21:53:52.261Z,98368.94
2024-02-13T21:56:19.721Z,98371.31
2024-02-13T21:58:46.956Z,98374.44
2024-02-13T22:01:14.348Z,98364.38
2024-02-13T22:03:41.682Z,98366.09
2024-02-13T22:06:08.466Z,98360.75
2024-02-13T22:08:36.371Z,98366.56
2024-02-13T22:11:03.473Z,98366.56
2024-02-13T22:13:30.131Z,98364.81
2024-02-13T22:15:58.511Z,98364.66
2024-02-13T22:18:26.613Z,98374.25
2024-02-13T22:20:53.708Z,98373.78
2024-02-13T22:23:20.585Z,98381.97
2024-02-13T22:25:47.262Z,98375.19
2024-02-13T22:28:15.025Z,98383.22
2024-02-13T22:30:43.384Z,98376.31
2024-02-13T22:33:10.300Z,98381.84
2024-02-13T22:35:37.688Z,98384.38
2024-02-13T22:38:05.324Z,98395.72
2024-02-13T22:40:32.366Z,98397.44
2024-02-13T22:43:01.640Z,98398.38
2024-02-13T22:45:28.371Z,98398.84
2024-02-13T22:48:00.344Z,98397.75
2024-02-13T22:50:28.000Z,98403.09
2024-02-13T22:52:59.517Z,98397.75
2024-02-13T22:55:28.070Z,98407.50
2024-02-13T22:57:54.672Z,98402.47
2024-02-13T23:00:41.074Z,98404.50
2024-02-13T23:03:09.220Z,98404.97
2024-02-13T23:05:36.133Z,98415.19
2024-02-13T23:08:06.661Z,98424.63
2024-02-13T23:10:33.494Z,98427.13
2024-02-13T23:13:00.309Z,98432.03
2024-02-13T23:15:27.110Z,98433.63
2024-02-13T23:17:53.908Z,98431.91
2024-02-13T23:20:22.510Z,98431.28
2024-02-13T23:22:53.503Z,98430.81
2024-02-13T23:25:21.106Z,98431.25
2024-02-13T23:27:48.259Z,98430.75
2024-02-13T23:30:15.333Z,98434.50
2024-02-13T23:32:42.990Z,98437.03
2024-02-13T23:35:10.162Z,98441.72
2024-02-13T23:37:37.093Z,98438.91
2024-02-13T23:40:16.933Z,98443.13
2024-02-13T23:42:45.161Z,98436.38
2024-02-13T23:45:11.867Z,98440.16
2024-02-13T23:47:39.651Z,98439.50
2024-02-13T23:50:10.444Z,98445.81
2024-02-13T23:52:38.964Z,98450.09
2024-02-13T23:55:12.604Z,98450.56
2024-02-13T23:57:41.731Z,98453.72
